Time;durP1;ratioP1;P1;durP2;ratioP2;P2;SDS_P1;SDS_P2;PMS_P1;PMS_P2;Temp;Humidity;BMP_temperature;BMP_pressure;BME280_temperature;BME280_humidity;BME280_pressure;Samples;Min_cycle;Max_cycle;Signal;HPM_P1;HPM_P2
2021/06/08 00:01:28;;;;;;;32.90;26.40;;;16.60;99.90;;;;;;5072606;28;20635;-83
2021/06/08 00:03:55;;;;;;;32.90;25.03;;;16.60;99.90;;;;;;5072464;28;20616;-83
2021/06/08 00:06:22;;;;;;;33.50;25.90;;;16.60;99.90;;;;;;5071285;28;21162;-83
2021/06/08 00:08:48;;;;;;;29.93;25.97;;;16.50;99.90;;;;;;5072526;28;20644;-82
2021/06/08 00:11:16;;;;;;;27.97;25.07;;;16.50;99.90;;;;;;5072646;28;20709;-83
2021/06/08 00:13:44;;;;;;;31.87;26.30;;;16.50;99.90;;;;;;5072844;28;20654;-83
2021/06/08 00:16:10;;;;;;;30.07;25.73;;;16.50;99.90;;;;;;5072269;28;20628;-82
2021/06/08 00:18:37;;;;;;;33.53;26.53;;;16.40;99.90;;;;;;5072895;28;20622;-83
2021/06/08 00:21:03;;;;;;;29.60;24.87;;;16.50;99.90;;;;;;5072159;28;20627;-83
2021/06/08 00:23:30;;;;;;;33.40;26.17;;;16.50;99.90;;;;;;5072343;28;20701;-83
2021/06/08 00:25:56;;;;;;;35.93;27.97;;;16.50;99.90;;;;;;5071775;28;20616;-83
2021/06/08 00:28:23;;;;;;;30.33;26.40;;;16.50;99.90;;;;;;5071096;28;21351;-83
2021/06/08 00:30:50;;;;;;;32.90;24.87;;;16.50;99.90;;;;;;5072454;28;20621;-83
2021/06/08 00:33:17;;;;;;;31.40;26.50;;;16.50;99.90;;;;;;5072101;28;21314;-84
2021/06/08 00:35:43;;;;;;;29.63;24.83;;;16.60;99.90;;;;;;5071232;28;20639;-83
2021/06/08 00:38:10;;;;;;;34.60;26.30;;;16.60;99.90;;;;;;5071940;28;20622;-83
2021/06/08 00:40:41;;;;;;;32.60;26.50;;;16.60;99.90;;;;;;5072083;28;20613;-84
2021/06/08 00:43:07;;;;;;;29.60;23.80;;;16.60;99.90;;;;;;5072061;28;20633;-83
2021/06/08 00:45:34;;;;;;;27.57;24.57;;;16.60;99.90;;;;;;5065960;28;21284;-83
2021/06/08 00:48:02;;;;;;;29.77;25.10;;;16.60;99.90;;;;;;5071408;28;20625;-83
2021/06/08 00:50:28;;;;;;;33.83;26.07;;;16.60;99.90;;;;;;5071927;28;20599;-83
2021/06/08 00:52:55;;;;;;;29.33;24.67;;;16.60;99.90;;;;;;5071541;28;20666;-82
2021/06/08 00:55:21;;;;;;;28.13;24.37;;;16.50;99.90;;;;;;5071372;28;20613;-82
2021/06/08 00:57:50;;;;;;;28.70;23.30;;;16.60;99.90;;;;;;5071797;28;20684;-83
2021/06/08 01:00:18;;;;;;;28.90;25.80;;;16.60;99.90;;;;;;5056545;28;20657;-82
2021/06/08 01:02:45;;;;;;;27.83;23.80;;;16.60;99.90;;;;;;5050712;28;21123;-83
2021/06/08 01:05:16;;;;;;;28.20;23.00;;;16.60;99.90;;;;;;5051082;28;20617;-83
2021/06/08 01:07:44;;;;;;;24.63;21.97;;;16.60;99.90;;;;;;5051637;28;20621;-83
2021/06/08 01:10:15;;;;;;;24.57;20.83;;;16.60;99.90;;;;;;5052138;28;20719;-83
2021/06/08 01:12:43;;;;;;;23.33;18.80;;;16.60;99.90;;;;;;5051617;28;21174;-83
2021/06/08 01:15:11;;;;;;;22.13;18.47;;;16.60;99.90;;;;;;5050724;28;21047;-83
2021/06/08 01:17:39;;;;;;;21.97;19.33;;;16.60;99.90;;;;;;5060450;28;20636;-83
2021/06/08 01:20:07;;;;;;;22.37;18.37;;;16.60;99.90;;;;;;5071521;28;20694;-83
2021/06/08 01:22:37;;;;;;;18.93;16.87;;;16.60;99.90;;;;;;5071111;28;21020;-83
2021/06/08 01:25:06;;;;;;;23.10;17.80;;;16.50;99.90;;;;;;5070685;28;20619;-83
2021/06/08 01:27:34;;;;;;;20.40;16.87;;;16.50;99.90;;;;;;5069556;28;20669;-83
2021/06/08 01:30:04;;;;;;;16.67;15.03;;;16.50;99.90;;;;;;5071365;28;20716;-83
2021/06/08 01:32:33;;;;;;;17.80;13.90;;;16.50;99.90;;;;;;5071184;28;20617;-83
2021/06/08 01:35:01;;;;;;;16.80;15.10;;;16.40;99.90;;;;;;5070537;28;20674;-83
2021/06/08 01:37:28;;;;;;;19.80;17.50;;;16.40;99.90;;;;;;5070945;28;20698;-83
2021/06/08 01:39:58;;;;;;;23.03;20.37;;;16.40;99.90;;;;;;5070992;28;20620;-83
2021/06/08 01:42:27;;;;;;;24.57;21.87;;;16.40;99.90;;;;;;5070760;28;21213;-83
2021/06/08 01:44:56;;;;;;;25.60;21.17;;;16.40;99.90;;;;;;5070662;28;20640;-83
2021/06/08 01:47:25;;;;;;;25.53;21.10;;;16.40;99.90;;;;;;5071146;28;21038;-83
2021/06/08 01:49:54;;;;;;;24.57;21.70;;;16.40;99.90;;;;;;5070758;28;20621;-83
2021/06/08 01:52:34;;;;;;;25.63;21.70;;;16.50;99.90;;;;;;5070574;28;20651;-83
2021/06/08 01:55:12;;;;;;;27.00;24.03;;;16.40;99.90;;;;;;5066780;28;20687;-83
2021/06/08 01:57:44;;;;;;;25.40;22.30;;;16.40;99.90;;;;;;5070033;28;20722;-84
2021/06/08 02:00:16;;;;;;;26.30;21.40;;;16.40;99.90;;;;;;5068065;28;20619;-83
2021/06/08 02:02:54;;;;;;;26.13;22.97;;;16.50;99.90;;;;;;5064201;28;20628;-83
2021/06/08 02:05:34;;;;;;;25.57;21.87;;;16.50;99.90;;;;;;5064901;28;21117;-83
2021/06/08 02:08:15;;;;;;;26.03;22.40;;;16.50;99.90;;;;;;5066730;28;20626;-83
2021/06/08 02:10:49;;;;;;;27.37;22.50;;;16.50;99.90;;;;;;5070514;28;20782;-84
2021/06/08 02:13:28;;;;;;;26.60;21.70;;;16.50;99.90;;;;;;5070529;28;20655;-84
2021/06/08 02:16:02;;;;;;;22.57;19.43;;;16.50;99.90;;;;;;5069810;28;20620;-84
2021/06/08 02:18:30;;;;;;;26.27;21.33;;;16.50;99.90;;;;;;5070780;28;21010;-83
2021/06/08 02:21:01;;;;;;;25.10;22.40;;;16.60;99.90;;;;;;5070577;28;20607;-84
2021/06/08 02:23:29;;;;;;;23.20;20.70;;;16.50;99.90;;;;;;5070379;28;20693;-84
2021/06/08 02:26:00;;;;;;;26.07;21.10;;;16.50;99.90;;;;;;5069655;28;21214;-84
2021/06/08 02:28:35;;;;;;;25.30;22.50;;;16.50;99.90;;;;;;5069181;28;20613;-84
2021/06/08 02:31:08;;;;;;;27.77;21.27;;;16.50;99.90;;;;;;5070184;28;20606;-84
2021/06/08 02:33:38;;;;;;;27.20;21.93;;;16.50;99.90;;;;;;5070263;28;21007;-84
2021/06/08 02:36:06;;;;;;;23.90;20.70;;;16.40;99.90;;;;;;5069823;28;20620;-84
2021/06/08 02:38:35;;;;;;;24.10;21.50;;;16.50;99.90;;;;;;5069917;28;20627;-84
2021/06/08 02:41:05;;;;;;;28.03;22.33;;;16.40;99.90;;;;;;5070232;28;20620;-84
2021/06/08 02:43:35;;;;;;;23.87;21.33;;;16.50;99.90;;;;;;5070720;28;20607;-84
2021/06/08 02:46:02;;;;;;;24.07;21.53;;;16.50;99.90;;;;;;5069941;28;20665;-84
2021/06/08 02:48:29;;;;;;;26.10;21.30;;;16.50;99.90;;;;;;5070380;28;21024;-84
2021/06/08 02:50:57;;;;;;;24.73;22.13;;;16.50;99.90;;;;;;5070097;28;20649;-84
2021/06/08 02:53:25;;;;;;;27.23;22.30;;;16.50;99.90;;;;;;5069954;28;20656;-84
2021/06/08 02:55:53;;;;;;;28.83;23.40;;;16.40;99.90;;;;;;5069620;28;20610;-83
2021/06/08 02:58:23;;;;;;;26.43;22.60;;;16.40;99.90;;;;;;5070014;28;20620;-84
2021/06/08 03:00:50;;;;;;;30.63;23.60;;;16.40;99.90;;;;;;5070142;28;20980;-84
2021/06/08 03:03:20;;;;;;;28.83;22.87;;;16.40;99.90;;;;;;5070107;28;21172;-83
2021/06/08 03:05:51;;;;;;;28.80;23.83;;;16.50;99.90;;;;;;5063784;28;20642;-83
2021/06/08 03:08:21;;;;;;;27.13;22.97;;;16.40;99.90;;;;;;5069781;28;20627;-83
2021/06/08 03:10:50;;;;;;;29.37;23.93;;;16.40;99.90;;;;;;5069779;28;20660;-84
2021/06/08 03:13:18;;;;;;;27.50;23.00;;;16.40;99.90;;;;;;5069725;28;20685;-84
2021/06/08 03:15:50;;;;;;;27.60;22.90;;;16.40;99.90;;;;;;5051166;28;20646;-84
2021/06/08 03:18:18;;;;;;;30.57;24.70;;;16.40;99.90;;;;;;5053636;28;20624;-84
2021/06/08 03:20:51;;;;;;;28.93;23.50;;;16.40;99.90;;;;;;5053897;28;20620;-84
2021/06/08 03:23:20;;;;;;;27.57;23.30;;;16.40;99.90;;;;;;5053382;28;20624;-83
2021/06/08 03:25:48;;;;;;;29.70;24.73;;;16.40;99.90;;;;;;5053139;28;20619;-84
2021/06/08 03:28:19;;;;;;;31.63;25.40;;;16.50;99.90;;;;;;5052464;28;20639;-84
2021/06/08 03:30:49;;;;;;;30.97;23.50;;;16.40;99.90;;;;;;5053683;28;20967;-83
2021/06/08 03:33:17;;;;;;;28.60;24.93;;;16.40;99.90;;;;;;5053440;28;20756;-83
2021/06/08 03:35:45;;;;;;;27.97;23.47;;;16.40;99.90;;;;;;5052982;28;21025;-84
2021/06/08 03:38:12;;;;;;;31.00;25.33;;;16.40;99.90;;;;;;5053305;28;20613;-84
2021/06/08 03:40:39;;;;;;;33.13;24.60;;;16.30;99.90;;;;;;5053694;28;20617;-83
2021/06/08 03:43:05;;;;;;;30.53;24.90;;;16.40;99.90;;;;;;5052751;28;20620;-83
2021/06/08 03:45:32;;;;;;;37.83;26.93;;;16.40;99.90;;;;;;5052758;28;20624;-84
2021/06/08 03:48:00;;;;;;;29.80;24.83;;;16.40;99.90;;;;;;5064187;28;20611;-83
2021/06/08 03:50:27;;;;;;;29.40;23.83;;;16.50;99.90;;;;;;5072446;28;21105;-84
2021/06/08 03:52:55;;;;;;;26.23;23.30;;;16.50;99.90;;;;;;5072044;28;20729;-84
2021/06/08 03:55:24;;;;;;;30.97;25.60;;;16.50;99.90;;;;;;5072074;28;20725;-83
2021/06/08 03:57:54;;;;;;;29.43;23.40;;;16.40;99.90;;;;;;5072794;28;21223;-84
2021/06/08 04:00:23;;;;;;;28.40;24.67;;;16.50;99.90;;;;;;5073171;28;20726;-83
2021/06/08 04:02:50;;;;;;;32.60;26.00;;;16.50;99.90;;;;;;5072994;28;21149;-84
2021/06/08 04:05:18;;;;;;;32.10;25.60;;;16.60;99.90;;;;;;5072118;28;21184;-84
2021/06/08 04:07:47;;;;;;;30.47;24.50;;;16.60;99.90;;;;;;5072844;28;20727;-84
2021/06/08 04:10:18;;;;;;;30.67;24.80;;;16.50;99.90;;;;;;5072402;28;20628;-84
2021/06/08 04:12:45;;;;;;;30.80;24.87;;;16.50;99.90;;;;;;5073103;28;20662;-84
2021/06/08 04:15:13;;;;;;;29.20;25.80;;;16.50;99.90;;;;;;5067879;28;20679;-84
2021/06/08 04:17:39;;;;;;;30.37;25.70;;;16.50;99.90;;;;;;5071944;28;20734;-84
2021/06/08 04:20:08;;;;;;;31.70;26.43;;;16.50;99.90;;;;;;5072544;28;20650;-84
2021/06/08 04:22:37;;;;;;;30.70;25.40;;;16.50;99.90;;;;;;5072232;28;21152;-84
2021/06/08 04:25:05;;;;;;;31.63;25.57;;;16.40;99.90;;;;;;5071519;28;20666;-84
2021/06/08 04:27:34;;;;;;;28.57;25.30;;;16.40;99.90;;;;;;5071758;28;20617;-83
2021/06/08 04:30:01;;;;;;;31.37;25.30;;;16.50;99.90;;;;;;5072130;28;20683;-84
2021/06/08 04:32:27;;;;;;;30.30;25.77;;;16.40;99.90;;;;;;5072426;28;20623;-83
2021/06/08 04:34:56;;;;;;;32.50;23.73;;;16.40;99.90;;;;;;5071015;28;20640;-83
2021/06/08 04:37:23;;;;;;;32.40;25.80;;;16.50;99.90;;;;;;5072232;28;21079;-83
2021/06/08 04:39:51;;;;;;;31.00;24.27;;;16.50;99.90;;;;;;5065634;28;20644;-84
2021/06/08 04:42:18;;;;;;;36.20;26.93;;;16.50;99.90;;;;;;5071521;28;20617;-84
2021/06/08 04:44:46;;;;;;;29.07;24.13;;;16.50;99.90;;;;;;5068376;28;20628;-84
2021/06/08 04:47:15;;;;;;;32.97;26.20;;;16.50;99.90;;;;;;5071359;28;20619;-84
2021/06/08 04:49:43;;;;;;;30.00;25.60;;;16.50;99.90;;;;;;5071656;28;20636;-84
2021/06/08 04:52:10;;;;;;;32.17;24.93;;;16.50;99.90;;;;;;5071104;28;20632;-84
2021/06/08 04:54:37;;;;;;;35.43;23.63;;;16.60;99.90;;;;;;5070203;28;20650;-86
2021/06/08 04:57:06;;;;;;;33.13;25.63;;;16.60;99.90;;;;;;5070392;28;21229;-86
2021/06/08 04:59:38;;;;;;;33.10;24.73;;;16.50;99.90;;;;;;5071630;28;20627;-86
2021/06/08 05:02:09;;;;;;;32.30;24.20;;;16.40;99.90;;;;;;5071542;28;20607;-86
2021/06/08 05:04:39;;;;;;;32.97;26.23;;;16.60;99.90;;;;;;5071180;28;20724;-85
2021/06/08 05:07:09;;;;;;;32.97;26.00;;;16.50;99.90;;;;;;5071660;28;20665;-86
2021/06/08 05:09:39;;;;;;;29.57;23.80;;;16.60;99.90;;;;;;5071444;28;21067;-86
2021/06/08 05:12:10;;;;;;;34.33;26.00;;;16.60;99.90;;;;;;5071732;28;20666;-86
2021/06/08 05:14:38;;;;;;;43.57;27.40;;;16.60;99.90;;;;;;5070366;28;20659;-85
2021/06/08 05:17:05;;;;;;;32.20;25.57;;;16.70;99.90;;;;;;5071043;28;20633;-85
2021/06/08 05:19:33;;;;;;;35.20;26.37;;;16.70;99.90;;;;;;5071437;28;20963;-86
2021/06/08 05:22:01;;;;;;;29.77;24.20;;;16.70;99.90;;;;;;5071381;28;20628;-86
2021/06/08 05:24:28;;;;;;;34.47;25.83;;;16.70;99.90;;;;;;5069567;28;20981;-85
2021/06/08 05:26:54;;;;;;;30.43;24.80;;;16.60;99.90;;;;;;5070238;28;20651;-86
2021/06/08 05:29:23;;;;;;;28.10;24.10;;;16.70;99.90;;;;;;5063895;28;20734;-86
2021/06/08 05:31:51;;;;;;;27.87;23.77;;;16.70;99.90;;;;;;5070737;28;20969;-85
2021/06/08 05:34:20;;;;;;;29.53;25.77;;;16.70;99.90;;;;;;5065518;28;20706;-86
2021/06/08 05:36:47;;;;;;;29.70;24.80;;;16.60;99.90;;;;;;5070206;28;20633;-86
2021/06/08 05:39:13;;;;;;;29.43;23.50;;;16.60;99.90;;;;;;5068009;28;20628;-86
2021/06/08 05:41:40;;;;;;;29.77;25.13;;;16.60;99.90;;;;;;5070720;28;20617;-86
2021/06/08 05:44:09;;;;;;;34.40;25.97;;;16.70;99.90;;;;;;5071873;28;20629;-86
2021/06/08 05:46:38;;;;;;;30.13;25.03;;;16.70;99.90;;;;;;5070759;28;20638;-86
2021/06/08 05:49:06;;;;;;;30.60;25.77;;;16.80;99.90;;;;;;5056356;28;20613;-85
2021/06/08 05:51:34;;;;;;;29.70;25.17;;;16.70;99.90;;;;;;5071498;28;20631;-86
2021/06/08 05:54:01;;;;;;;35.37;26.80;;;16.70;99.90;;;;;;5070950;28;20974;-85
2021/06/08 05:56:33;;;;;;;31.97;27.70;;;16.70;99.90;;;;;;5070177;28;20629;-85
2021/06/08 05:58:59;;;;;;;33.60;25.03;;;16.80;99.90;;;;;;5055925;28;20693;-85
2021/06/08 06:01:28;;;;;;;31.97;26.27;;;16.70;99.90;;;;;;5051342;28;20612;-88
2021/06/08 06:03:56;;;;;;;35.33;27.57;;;16.60;99.90;;;;;;5052069;28;20616;-88
2021/06/08 06:06:24;;;;;;;33.43;26.13;;;16.60;99.90;;;;;;5062066;28;21022;-88
2021/06/08 06:08:52;;;;;;;35.40;26.87;;;16.50;99.90;;;;;;5064151;28;20625;-87
2021/06/08 06:11:20;;;;;;;32.90;26.23;;;16.60;99.90;;;;;;5053151;28;20611;-87
2021/06/08 06:13:49;;;;;;;32.67;26.77;;;16.60;99.90;;;;;;5056605;28;20646;-88
2021/06/08 06:16:18;;;;;;;29.43;25.67;;;16.60;99.90;;;;;;5073061;28;20606;-88
2021/06/08 06:18:44;;;;;;;31.23;25.77;;;16.60;99.90;;;;;;5061185;28;20715;-88
2021/06/08 06:21:13;;;;;;;34.33;25.83;;;16.50;99.90;;;;;;5064745;28;20615;-88
2021/06/08 06:23:40;;;;;;;33.73;26.47;;;16.50;99.90;;;;;;5071728;28;20620;-88
2021/06/08 06:26:07;;;;;;;34.37;26.17;;;16.50;99.90;;;;;;5069302;28;20628;-89
2021/06/08 06:28:38;;;;;;;34.60;26.73;;;16.50;99.90;;;;;;5056315;28;20636;-88
2021/06/08 06:31:07;;;;;;;35.33;27.47;;;16.50;99.90;;;;;;5059574;28;20644;-89
2021/06/08 06:33:34;;;;;;;31.40;26.60;;;16.60;99.90;;;;;;5058968;28;20648;-89
2021/06/08 06:36:04;;;;;;;34.77;26.70;;;16.70;99.90;;;;;;5069528;28;20622;-88
2021/06/08 06:38:32;;;;;;;30.57;25.70;;;16.60;99.90;;;;;;5059075;28;21065;-87
2021/06/08 06:41:02;;;;;;;34.57;27.43;;;16.70;99.90;;;;;;5069980;28;20629;-89
2021/06/08 06:43:31;;;;;;;33.70;26.60;;;16.60;99.90;;;;;;5070120;28;20622;-88
2021/06/08 06:45:57;;;;;;;34.43;27.20;;;16.70;99.90;;;;;;5069705;28;20628;-89
2021/06/08 06:48:24;;;;;;;34.27;26.17;;;16.70;99.90;;;;;;5066898;28;20752;-88
2021/06/08 06:50:53;;;;;;;36.87;27.60;;;16.70;99.90;;;;;;5066753;28;20620;-88
2021/06/08 06:53:20;;;;;;;31.87;25.23;;;16.80;99.90;;;;;;5074163;28;20975;-88
2021/06/08 06:55:49;;;;;;;31.27;26.03;;;16.80;99.90;;;;;;5073787;28;20681;-89
2021/06/08 06:58:18;;;;;;;36.03;28.57;;;16.80;99.90;;;;;;5074206;28;20631;-88
2021/06/08 07:00:45;;;;;;;34.90;27.50;;;16.60;99.90;;;;;;5071340;28;20628;-88
2021/06/08 07:03:14;;;;;;;32.17;27.40;;;16.70;99.90;;;;;;5074380;28;20667;-88
2021/06/08 07:05:43;;;;;;;31.70;27.97;;;16.70;99.90;;;;;;5074701;28;20605;-88
2021/06/08 07:08:13;;;;;;;32.90;25.50;;;16.70;99.90;;;;;;5073889;28;21203;-87
2021/06/08 07:10:40;;;;;;;35.10;26.33;;;16.80;99.90;;;;;;5074568;28;20618;-88
2021/06/08 07:13:08;;;;;;;35.03;26.83;;;16.80;99.90;;;;;;5074048;28;20963;-89
2021/06/08 07:15:37;;;;;;;33.33;26.93;;;16.80;99.90;;;;;;5056598;28;20649;-88
2021/06/08 07:18:04;;;;;;;33.70;25.83;;;16.80;99.90;;;;;;5071883;28;20632;-88
2021/06/08 07:20:32;;;;;;;31.10;26.27;;;17.00;99.90;;;;;;5054627;28;20624;-88
2021/06/08 07:22:59;;;;;;;32.50;26.60;;;16.90;99.90;;;;;;5067420;28;20636;-88
2021/06/08 07:25:26;;;;;;;35.30;26.23;;;16.80;99.90;;;;;;5073436;28;20624;-88
2021/06/08 07:27:53;;;;;;;33.10;26.03;;;16.90;99.90;;;;;;5073500;28;20655;-88
2021/06/08 07:30:24;;;;;;;32.37;26.40;;;16.90;99.90;;;;;;5073410;28;20670;-87
2021/06/08 07:33:10;;;;;;;31.90;27.10;;;16.90;99.90;;;;;;5029166;28;20628;-88
2021/06/08 07:35:45;;;;;;;33.83;26.80;;;17.10;99.90;;;;;;5073513;28;20652;-88
2021/06/08 07:38:18;;;;;;;32.10;24.90;;;17.20;99.90;;;;;;5071944;28;20618;-87
2021/06/08 07:40:54;;;;;;;32.77;25.93;;;17.20;99.90;;;;;;5053297;28;20639;-88
2021/06/08 07:43:26;;;;;;;33.13;26.77;;;17.20;99.90;;;;;;5056098;28;20683;-89
2021/06/08 07:45:55;;;;;;;34.37;30.07;;;17.30;99.90;;;;;;5066185;28;21007;-88
2021/06/08 07:48:27;;;;;;;33.33;26.87;;;17.10;99.90;;;;;;5071632;28;20616;-89
2021/06/08 07:50:55;;;;;;;29.50;26.07;;;17.10;99.90;;;;;;5060065;28;20637;-89
2021/06/08 07:53:24;;;;;;;32.90;25.57;;;17.20;99.90;;;;;;5072451;28;20670;-88
2021/06/08 07:55:52;;;;;;;30.67;26.20;;;17.20;99.90;;;;;;5070322;28;21095;-89
2021/06/08 07:58:22;;;;;;;32.77;26.13;;;17.20;99.90;;;;;;5076821;28;20620;-89
2021/06/08 08:00:50;;;;;;;30.63;26.00;;;17.30;99.90;;;;;;5057948;28;20633;-89
2021/06/08 08:03:26;;;;;;;33.90;26.63;;;17.50;99.90;;;;;;5078616;28;21243;-88
2021/06/08 08:05:57;;;;;;;28.93;23.60;;;17.60;99.90;;;;;;5066646;28;20621;-89
2021/06/08 08:08:24;;;;;;;32.30;26.20;;;17.50;99.90;;;;;;5077235;28;20633;-89
2021/06/08 08:10:52;;;;;;;31.00;24.40;;;17.50;99.90;;;;;;5080723;28;20625;-88
2021/06/08 08:13:22;;;;;;;33.93;27.40;;;17.50;99.90;;;;;;5074677;28;20618;-89
2021/06/08 08:15:50;;;;;;;34.47;26.90;;;17.50;99.90;;;;;;5075066;28;20648;-89
2021/06/08 08:18:19;;;;;;;33.70;26.87;;;17.40;99.90;;;;;;5078811;28;21028;-88
2021/06/08 08:20:49;;;;;;;29.73;25.83;;;17.40;99.90;;;;;;5078484;28;20630;-89
2021/06/08 08:23:16;;;;;;;33.73;28.17;;;17.40;99.90;;;;;;5079360;28;20720;-88
2021/06/08 08:25:43;;;;;;;31.53;28.13;;;17.30;99.90;;;;;;5080226;28;20635;-89
2021/06/08 08:28:12;;;;;;;34.90;28.10;;;17.20;99.90;;;;;;5080801;28;20655;-88
2021/06/08 08:30:39;;;;;;;33.43;26.10;;;17.20;99.90;;;;;;5079608;28;20648;-88
2021/06/08 08:33:05;;;;;;;32.07;26.73;;;17.20;99.90;;;;;;5079091;28;20616;-88
2021/06/08 08:35:36;;;;;;;35.80;28.97;;;17.10;99.90;;;;;;5079537;28;20652;-88
2021/06/08 08:38:03;;;;;;;32.20;28.10;;;16.90;99.90;;;;;;5077475;28;20624;-89
2021/06/08 08:40:30;;;;;;;35.30;26.80;;;17.00;99.90;;;;;;5078418;28;20637;-89
2021/06/08 08:43:00;;;;;;;35.60;27.70;;;17.10;99.90;;;;;;5075702;28;20620;-89
2021/06/08 08:45:27;;;;;;;37.50;28.03;;;17.10;99.90;;;;;;5075688;28;20617;-88
2021/06/08 08:47:56;;;;;;;33.47;28.40;;;17.20;99.90;;;;;;5076987;28;21196;-88
2021/06/08 08:50:24;;;;;;;31.33;27.93;;;17.20;99.90;;;;;;5074452;28;20653;-89
2021/06/08 08:52:56;;;;;;;33.53;28.47;;;17.30;99.90;;;;;;5075543;28;20602;-88
2021/06/08 08:55:24;;;;;;;40.00;31.00;;;17.40;99.90;;;;;;5061458;28;20673;-88
2021/06/08 08:57:52;;;;;;;33.60;28.30;;;17.60;99.90;;;;;;5065599;28;20640;-88
2021/06/08 09:00:19;;;;;;;36.30;30.87;;;17.60;99.90;;;;;;5075497;28;20664;-88
2021/06/08 09:02:46;;;;;;;30.60;27.17;;;17.80;99.90;;;;;;5056064;28;20633;-89
2021/06/08 09:05:13;;;;;;;34.33;27.57;;;17.70;99.90;;;;;;5077124;28;20610;-89
2021/06/08 09:07:40;;;;;;;33.07;26.90;;;17.60;99.90;;;;;;5078252;28;20617;-88
2021/06/08 09:10:11;;;;;;;31.40;27.33;;;17.70;99.90;;;;;;5078891;28;20679;-89
2021/06/08 09:12:38;;;;;;;32.30;28.10;;;17.80;99.90;;;;;;5077248;28;20665;-89
2021/06/08 09:15:05;;;;;;;33.67;29.33;;;17.80;99.90;;;;;;5077069;28;20760;-88
2021/06/08 09:17:32;;;;;;;33.30;29.00;;;17.90;99.90;;;;;;5078231;28;20614;-88
2021/06/08 09:19:59;;;;;;;37.13;29.33;;;17.90;99.90;;;;;;5074961;28;20630;-88
2021/06/08 09:22:51;;;;;;;34.60;27.67;;;17.90;99.90;;;;;;5075549;28;20736;-88
2021/06/08 09:25:42;;;;;;;29.33;26.17;;;17.90;99.90;;;;;;5070546;28;21238;-88
2021/06/08 09:28:24;;;;;;;34.60;27.97;;;18.10;99.90;;;;;;5066934;28;20621;-88
2021/06/08 09:30:59;;;;;;;31.33;27.50;;;18.10;99.90;;;;;;5076816;28;20621;-88
2021/06/08 09:33:27;;;;;;;34.80;28.00;;;18.20;99.90;;;;;;5078214;28;20712;-88
2021/06/08 09:35:56;;;;;;;35.37;29.60;;;18.30;99.90;;;;;;5076829;28;20729;-88
2021/06/08 09:38:35;;;;;;;33.50;29.90;;;18.40;99.90;;;;;;5072343;28;21154;-88
2021/06/08 09:41:16;;;;;;;34.50;29.70;;;18.60;99.90;;;;;;5068350;28;20621;-89
2021/06/08 09:43:51;;;;;;;32.60;29.30;;;18.70;99.90;;;;;;5070402;28;21245;-88
2021/06/08 09:46:17;;;;;;;31.00;27.50;;;18.70;99.90;;;;;;5069561;28;20625;-88
2021/06/08 09:48:52;;;;;;;30.70;26.40;;;18.90;99.90;;;;;;5069577;28;20629;-89
2021/06/08 09:51:18;;;;;;;31.90;28.43;;;19.20;99.90;;;;;;5070300;28;20621;-88
2021/06/08 09:53:45;;;;;;;33.57;26.63;;;19.40;99.90;;;;;;5070004;28;20621;-87
2021/06/08 09:56:13;;;;;;;30.97;27.67;;;19.20;99.90;;;;;;5063183;28;21252;-88
2021/06/08 09:58:44;;;;;;;29.60;26.50;;;19.20;99.90;;;;;;5070078;28;20680;-88
2021/06/08 10:01:17;;;;;;;31.37;28.13;;;19.10;99.90;;;;;;5070258;28;20635;-88
2021/06/08 10:03:46;;;;;;;29.87;26.77;;;19.10;99.90;;;;;;5069348;28;20607;-88
2021/06/08 10:06:14;;;;;;;32.87;27.90;;;19.10;99.90;;;;;;5069285;28;20639;-88
2021/06/08 10:08:50;;;;;;;31.93;27.87;;;19.00;99.90;;;;;;5070863;28;20622;-88
2021/06/08 10:11:21;;;;;;;30.50;27.37;;;19.10;99.90;;;;;;5069358;28;20658;-88
2021/06/08 10:13:48;;;;;;;35.80;31.50;;;19.10;99.90;;;;;;5069954;28;20739;-89
2021/06/08 10:16:26;;;;;;;30.80;27.50;;;19.10;99.90;;;;;;5070283;28;20614;-88
2021/06/08 10:18:53;;;;;;;30.50;26.97;;;19.00;99.90;;;;;;5069932;28;20645;-88
2021/06/08 10:21:35;;;;;;;29.50;26.63;;;19.10;99.90;;;;;;5070616;28;20957;-88
2021/06/08 10:24:04;;;;;;;31.57;28.07;;;19.00;99.90;;;;;;5062850;28;21212;-88
2021/06/08 10:26:35;;;;;;;31.63;28.23;;;18.90;99.90;;;;;;5069668;28;20839;-88
2021/06/08 10:29:11;;;;;;;32.27;28.77;;;18.90;99.90;;;;;;5070552;28;20720;-88
2021/06/08 10:31:46;;;;;;;32.63;28.97;;;19.10;99.90;;;;;;5068930;28;20671;-88
2021/06/08 10:34:16;;;;;;;29.23;26.20;;;19.30;99.90;;;;;;5070521;28;20648;-88
2021/06/08 10:36:44;;;;;;;30.83;27.60;;;19.30;99.90;;;;;;5070069;28;20632;-88
2021/06/08 10:39:12;;;;;;;33.67;29.30;;;19.30;99.90;;;;;;5070284;28;20618;-88
2021/06/08 10:41:43;;;;;;;30.43;26.43;;;19.60;99.90;;;;;;5070361;28;20618;-89
2021/06/08 10:44:18;;;;;;;30.87;27.70;;;19.60;99.90;;;;;;5070873;28;20612;-88
2021/06/08 10:46:50;;;;;;;32.73;29.03;;;19.80;99.90;;;;;;5069910;28;20663;-89
2021/06/08 10:49:16;;;;;;;30.50;27.30;;;19.70;99.90;;;;;;5070264;28;20963;-89
2021/06/08 10:52:02;;;;;;;30.93;27.67;;;19.80;99.90;;;;;;5069014;28;20650;-88
2021/06/08 10:54:29;;;;;;;28.93;25.83;;;19.70;99.90;;;;;;5066109;28;20648;-90
2021/06/08 10:57:02;;;;;;;30.13;27.23;;;19.80;99.90;;;;;;5069377;28;20634;-89
2021/06/08 10:59:36;;;;;;;28.47;25.67;;;19.90;99.90;;;;;;5058108;28;20622;-89
2021/06/08 11:02:04;;;;;;;28.73;25.60;;;20.10;99.90;;;;;;5058993;28;20656;-87
2021/06/08 11:04:49;;;;;;;29.20;26.20;;;20.10;99.90;;;;;;5068839;28;20623;-87
2021/06/08 11:07:32;;;;;;;25.70;23.10;;;20.20;99.90;;;;;;5068031;28;20628;-88
2021/06/08 11:13:53;;;;;;;28.13;25.40;;;20.70;99.90;;;;;;5058839;28;20618;-89
2021/06/08 11:16:33;;;;;;;27.70;24.90;;;20.70;99.90;;;;;;5069251;28;20664;-89
2021/06/08 11:19:00;;;;;;;30.87;27.87;;;21.00;99.90;;;;;;5069615;28;21191;-88
2021/06/08 11:21:32;;;;;;;29.70;26.77;;;21.10;99.90;;;;;;5051180;28;20615;-87
2021/06/08 11:23:59;;;;;;;28.73;25.93;;;21.10;99.90;;;;;;5066087;28;21273;-87
2021/06/08 11:26:49;;;;;;;28.03;25.27;;;20.80;99.90;;;;;;5060827;28;20669;-87
2021/06/08 11:29:46;;;;;;;29.20;26.10;;;20.80;99.90;;;;;;5050999;28;20686;-87
2021/06/08 11:32:44;;;;;;;29.67;26.87;;;20.90;99.90;;;;;;5068575;28;21032;-87
2021/06/08 11:35:16;;;;;;;28.23;25.57;;;20.40;99.90;;;;;;5068476;28;20746;-88
2021/06/08 11:37:50;;;;;;;29.80;26.67;;;20.40;99.90;;;;;;5070888;28;20615;-87
2021/06/08 11:40:55;;;;;;;28.83;26.00;;;20.60;99.90;;;;;;5072046;28;20631;-87
2021/06/08 11:43:58;;;;;;;26.87;24.20;;;20.70;99.90;;;;;;5072851;28;20672;-87
2021/06/08 11:46:29;;;;;;;28.07;24.37;;;20.80;99.90;;;;;;5061571;28;20633;-88
2021/06/08 11:49:14;;;;;;;27.87;25.07;;;20.40;99.90;;;;;;5063714;28;20641;-87
2021/06/08 11:51:49;;;;;;;29.20;26.30;;;20.40;99.90;;;;;;5071909;28;20630;-87
2021/06/08 11:54:19;;;;;;;28.33;25.60;;;20.60;99.90;;;;;;5070107;28;20745;-87
2021/06/08 11:56:54;;;;;;;29.63;24.83;;;20.60;99.90;;;;;;5061034;28;20616;-88
2021/06/08 11:59:24;;;;;;;32.07;28.87;;;20.70;99.90;;;;;;5071315;28;20626;-87
2021/06/08 12:01:55;;;;;;;28.70;25.70;;;20.60;99.90;;;;;;5070978;28;21247;-87
2021/06/08 12:04:25;;;;;;;33.97;26.30;;;20.70;99.90;;;;;;5070689;28;20617;-87
2021/06/08 12:07:13;;;;;;;28.03;25.33;;;20.80;99.90;;;;;;5069728;28;20616;-89
2021/06/08 12:09:45;;;;;;;31.30;28.37;;;21.10;99.90;;;;;;5070218;28;20680;-88
2021/06/08 12:12:13;;;;;;;29.03;25.93;;;21.40;99.90;;;;;;5067588;28;20631;-88
2021/06/08 12:14:52;;;;;;;26.40;23.97;;;22.10;99.90;;;;;;5072092;28;20645;-88
2021/06/08 12:17:20;;;;;;;31.47;28.33;;;22.40;99.90;;;;;;5072536;28;20617;-87
2021/06/08 12:19:47;;;;;;;27.27;24.63;;;22.30;99.60;;;;;;5069775;28;20617;-88
2021/06/08 12:22:22;;;;;;;30.03;26.97;;;22.00;99.90;;;;;;5072045;28;20621;-86
2021/06/08 12:24:56;;;;;;;27.00;24.30;;;22.40;99.90;;;;;;5065915;28;20606;-88
2021/06/08 12:27:39;;;;;;;26.20;23.80;;;23.40;99.30;;;;;;5072801;28;20628;-88
2021/06/08 12:30:08;;;;;;;28.67;25.53;;;23.30;97.80;;;;;;5071719;28;20629;-90
2021/06/08 12:32:38;;;;;;;28.33;25.63;;;23.40;97.70;;;;;;5072128;28;21153;-88
2021/06/08 12:35:06;;;;;;;26.70;24.20;;;22.60;97.60;;;;;;5071240;28;20654;-88
2021/06/08 12:37:33;;;;;;;26.87;24.27;;;22.60;98.80;;;;;;5072449;28;20614;-88
2021/06/08 12:39:59;;;;;;;25.90;23.40;;;22.70;98.60;;;;;;5072475;28;20613;-88
2021/06/08 12:42:26;;;;;;;26.90;24.50;;;22.70;99.30;;;;;;5073033;28;20624;-87
2021/06/08 12:44:53;;;;;;;26.00;23.70;;;22.70;98.90;;;;;;5071722;28;20644;-87
2021/06/08 12:47:22;;;;;;;27.30;24.50;;;22.50;99.00;;;;;;5071862;28;20626;-87